Time;durP1;ratioP1;P1;durP2;ratioP2;P2;SDS_P1;SDS_P2;PMS_P1;PMS_P2;Temp;Humidity;BMP_temperature;BMP_pressure;BME280_temperature;BME280_humidity;BME280_pressure;Samples;Min_cycle;Max_cycle;Signal;HPM_P1;HPM_P2
2022/01/30 00:01:45;;;;;;;;;;;;;;;14.78;50.15;100210.84;4977279;27;121613;-63
2022/01/30 00:04:11;;;;;;;;;;;;;;;14.79;49.84;100184.53;4978615;27;98270;-55
2022/01/30 00:06:37;;;;;;;;;;;;;;;14.79;50.03;100204.31;4979634;28;128101;-56
2022/01/30 00:09:06;;;;;;;;;;;;;;;14.78;49.83;100205.41;4979848;27;102612;-55
2022/01/30 00:11:35;;;;;;;;;;;;;;;14.79;49.92;100206.22;4980754;27;98487;-62
2022/01/30 00:14:03;;;;;;;;;;;;;;;14.76;49.78;100202.19;4981141;28;97864;-63
2022/01/30 00:16:33;;;;;;;;;;;;;;;14.76;49.68;100188.63;4980770;27;99054;-62
2022/01/30 00:19:13;;;;;;;;;;;;;;;14.74;49.66;100209.84;4979956;27;98163;-63
2022/01/30 00:21:47;;;;;;;;;;;;;;;14.73;49.47;100217.16;4980675;28;97826;-63
2022/01/30 00:24:15;;;;;;;;;;;;;;;14.71;49.34;100205.81;4980691;27;99957;-63
2022/01/30 00:26:42;;;;;;;;;;;;;;;14.69;49.33;100215.34;4979999;28;98274;-55
2022/01/30 00:29:08;;;;;;;;;;;;;;;14.68;49.58;100200.97;4980023;28;98539;-63
2022/01/30 00:31:35;;;;;;;;;;;;;;;14.67;49.49;100214.84;4979635;27;97935;-56
2022/01/30 00:34:01;;;;;;;;;;;;;;;14.65;49.63;100233.31;4980600;28;97618;-63
2022/01/30 00:36:29;;;;;;;;;;;;;;;14.63;49.48;100214.66;4979537;27;99301;-63
2022/01/30 00:38:55;;;;;;;;;;;;;;;14.61;49.12;100222.28;4978148;28;98959;-56
2022/01/30 00:41:21;;;;;;;;;;;;;;;14.60;49.24;100228.81;4978519;28;126901;-63
2022/01/30 00:43:47;;;;;;;;;;;;;;;14.58;49.41;100219.34;4980146;27;117624;-56
2022/01/30 00:46:13;;;;;;;;;;;;;;;14.57;49.10;100217.75;4980701;28;128379;-56
2022/01/30 00:48:39;;;;;;;;;;;;;;;14.56;49.15;100221.56;4980645;27;98590;-63
2022/01/30 00:51:05;;;;;;;;;;;;;;;14.54;48.88;100224.59;4980233;27;98484;-56
2022/01/30 00:53:31;;;;;;;;;;;;;;;14.53;48.97;100208.59;4980062;27;116742;-63
2022/01/30 00:55:57;;;;;;;;;;;;;;;14.50;48.91;100199.16;4978858;28;128496;-56
2022/01/30 00:58:23;;;;;;;;;;;;;;;14.48;49.16;100212.19;4979593;28;98282;-55
2022/01/30 01:00:48;;;;;;;;;;;;;;;14.46;48.71;100219.81;4981425;27;108163;-55
2022/01/30 01:03:14;;;;;;;;;;;;;;;14.45;48.67;100202.72;4982086;27;117612;-62
2022/01/30 01:05:40;;;;;;;;;;;;;;;14.44;48.72;100213.91;4982572;28;125918;-56
2022/01/30 01:08:25;;;;;;;;;;;;;;;14.42;48.78;100218.78;4981821;27;131198;-56
2022/01/30 01:11:00;;;;;;;;;;;;;;;14.41;48.90;100196.31;4982917;27;97742;-55
2022/01/30 01:24:07;;;;;;;;;;;;;;;14.34;48.73;100185.03;4980952;27;105670;-59
2022/01/30 01:26:34;;;;;;;;;;;;;;;14.33;48.55;100188.88;4982888;27;97847;-56
2022/01/30 01:29:00;;;;;;;;;;;;;;;14.32;48.76;100181.84;4982812;28;98403;-55
2022/01/30 01:31:26;;;;;;;;;;;;;;;14.30;48.38;100194.88;4981652;27;128558;-55
2022/01/30 01:36:30;;;;;;;;;;;;;;;14.27;48.38;100187.34;4982397;27;97959;-56
2022/01/30 01:38:55;;;;;;;;;;;;;;;14.26;48.56;100183.03;4981220;28;126254;-63
2022/01/30 01:41:24;;;;;;;;;;;;;;;14.25;48.34;100168.66;4982643;27;98172;-55
2022/01/30 01:43:50;;;;;;;;;;;;;;;14.24;48.35;100153.50;4982798;27;98145;-55
2022/01/30 01:46:21;;;;;;;;;;;;;;;14.23;48.27;100179.00;4982649;27;98049;-63
2022/01/30 01:48:50;;;;;;;;;;;;;;;14.24;48.37;100186.03;4982727;27;98198;-62
2022/01/30 01:51:18;;;;;;;;;;;;;;;14.24;48.28;100207.72;4982073;27;98217;-55
2022/01/30 01:53:46;;;;;;;;;;;;;;;14.25;48.32;100200.38;4983475;27;97782;-63
2022/01/30 01:56:18;;;;;;;;;;;;;;;14.24;48.14;100196.88;4982610;27;98301;-55
2022/01/30 01:58:44;;;;;;;;;;;;;;;14.25;48.11;100192.25;4982157;27;98981;-55
2022/01/30 02:01:10;;;;;;;;;;;;;;;14.25;48.44;100178.72;4982225;27;98226;-55
2022/01/30 02:03:39;;;;;;;;;;;;;;;14.24;48.40;100183.31;4982583;28;97965;-63
2022/01/30 02:06:07;;;;;;;;;;;;;;;14.26;48.41;100199.28;4982757;27;98972;-55
2022/01/30 02:08:40;;;;;;;;;;;;;;;14.26;48.12;100177.59;4982501;27;98923;-63
2022/01/30 02:11:48;;;;;;;;;;;;;;;14.25;48.35;100214.75;4980565;27;98089;-63
2022/01/30 02:14:20;;;;;;;;;;;;;;;14.27;48.31;100206.34;4978626;27;97816;-57
2022/01/30 02:27:42;;;;;;;;;;;;;;;14.24;47.57;100221.28;4963554;28;97973;-63
2022/01/30 02:30:17;;;;;;;;;;;;;;;14.23;47.51;100195.28;4981137;27;99070;-63
2022/01/30 02:32:43;;;;;;;;;;;;;;;14.22;47.74;100188.22;4981577;27;98061;-56
2022/01/30 02:35:09;;;;;;;;;;;;;;;14.21;47.63;100200.19;4982167;27;98870;-63
2022/01/30 02:37:35;;;;;;;;;;;;;;;14.20;47.62;100219.47;4982186;28;98583;-55
2022/01/30 02:40:04;;;;;;;;;;;;;;;14.18;47.58;100202.69;4981820;27;98047;-56
2022/01/30 02:42:33;;;;;;;;;;;;;;;14.17;47.38;100191.03;4982028;27;97965;-63
2022/01/30 02:45:03;;;;;;;;;;;;;;;14.15;47.36;100201.38;4982528;27;98015;-56
2022/01/30 02:50:19;;;;;;;;;;;;;;;14.14;47.33;100186.19;4980895;27;98404;-56
2022/01/30 02:52:55;;;;;;;;;;;;;;;14.12;47.60;100187.63;4962545;28;98448;-64
2022/01/30 02:55:21;;;;;;;;;;;;;;;14.12;47.26;100187.63;4962285;28;98013;-64
2022/01/30 02:57:47;;;;;;;;;;;;;;;14.12;47.21;100166.75;4961921;28;98714;-64
2022/01/30 03:00:13;;;;;;;;;;;;;;;14.12;47.22;100176.78;4961446;28;126925;-56
2022/01/30 03:02:39;;;;;;;;;;;;;;;14.11;47.18;100167.84;4961282;28;114097;-56
2022/01/30 03:05:05;;;;;;;;;;;;;;;14.12;47.26;100183.00;4979236;28;97793;-57
2022/01/30 03:07:31;;;;;;;;;;;;;;;14.13;47.14;100159.41;4980805;27;99404;-57
2022/01/30 03:09:57;;;;;;;;;;;;;;;14.14;47.59;100175.38;4980301;28;113069;-64
2022/01/30 03:12:23;;;;;;;;;;;;;;;14.14;47.33;100123.88;4980500;28;127499;-56
2022/01/30 03:14:49;;;;;;;;;;;;;;;14.13;47.38;100157.50;4981592;27;117420;-56
2022/01/30 03:17:15;;;;;;;;;;;;;;;14.13;47.46;100187.31;4980740;28;120545;-64
2022/01/30 03:19:41;;;;;;;;;;;;;;;14.14;47.28;100185.41;4979456;28;98157;-63
2022/01/30 03:22:07;;;;;;;;;;;;;;;14.14;47.33;100197.03;4979537;28;128055;-63
2022/01/30 03:24:37;;;;;;;;;;;;;;;14.14;47.35;100207.88;4980450;27;110609;-56
2022/01/30 03:27:04;;;;;;;;;;;;;;;14.14;47.12;100207.09;4980815;27;98491;-57
2022/01/30 03:29:32;;;;;;;;;;;;;;;14.15;47.17;100206.81;4981647;27;99512;-56
2022/01/30 03:31:58;;;;;;;;;;;;;;;14.14;46.94;100212.50;4980370;27;98642;-64
2022/01/30 03:34:24;;;;;;;;;;;;;;;14.14;46.99;100196.25;4982285;28;99084;-64
2022/01/30 03:36:50;;;;;;;;;;;;;;;14.14;47.35;100197.03;4979609;27;128286;-64
2022/01/30 03:39:16;;;;;;;;;;;;;;;14.14;47.06;100190.81;4980708;28;110383;-57
2022/01/30 03:41:42;;;;;;;;;;;;;;;14.15;47.39;100206.00;4981032;27;98330;-64
2022/01/30 03:44:08;;;;;;;;;;;;;;;14.14;47.31;100188.13;4980027;27;117563;-63
2022/01/30 03:46:34;;;;;;;;;;;;;;;14.15;46.93;100187.03;4979992;28;128880;-57
2022/01/30 03:49:00;;;;;;;;;;;;;;;14.14;47.12;100179.97;4979986;28;129073;-64
2022/01/30 03:51:25;;;;;;;;;;;;;;;14.12;47.16;100172.16;4979707;28;128268;-63
2022/01/30 03:53:51;;;;;;;;;;;;;;;14.13;46.80;100181.91;4980885;27;117764;-56
2022/01/30 03:56:17;;;;;;;;;;;;;;;14.13;47.00;100190.03;4979637;28;111499;-64
2022/01/30 03:58:43;;;;;;;;;;;;;;;14.13;47.15;100186.50;4980405;28;98491;-64
2022/01/30 04:01:09;;;;;;;;;;;;;;;14.12;46.97;100199.25;4978963;27;122578;-63
2022/01/30 04:03:36;;;;;;;;;;;;;;;14.14;46.86;100201.66;4979806;27;117907;-64
2022/01/30 04:06:05;;;;;;;;;;;;;;;14.13;46.94;100176.47;4980810;27;98856;-64
2022/01/30 04:08:32;;;;;;;;;;;;;;;14.15;46.89;100187.84;4979878;28;98600;-64
2022/01/30 04:10:58;;;;;;;;;;;;;;;14.14;46.85;100180.78;4980543;27;98298;-64
2022/01/30 04:13:24;;;;;;;;;;;;;;;14.15;46.65;100178.91;4981044;28;97895;-64
2022/01/30 04:15:50;;;;;;;;;;;;;;;14.15;46.92;100168.06;4979639;27;111321;-56
2022/01/30 04:18:16;;;;;;;;;;;;;;;14.15;46.87;100165.34;4980502;28;112436;-57
2022/01/30 04:20:42;;;;;;;;;;;;;;;14.14;46.87;100156.38;4980561;27;98521;-64
2022/01/30 04:23:08;;;;;;;;;;;;;;;14.15;46.71;100158.03;4981376;28;97864;-64
2022/01/30 04:25:34;;;;;;;;;;;;;;;14.14;46.60;100166.44;4979570;28;114323;-64
2022/01/30 04:28:00;;;;;;;;;;;;;;;14.14;46.47;100182.69;4978796;28;129108;-56
2022/01/30 04:30:26;;;;;;;;;;;;;;;14.13;46.45;100165.63;4979679;27;110401;-57
2022/01/30 04:32:53;;;;;;;;;;;;;;;14.13;46.80;100171.06;4980077;27;108184;-56
2022/01/30 04:35:26;;;;;;;;;;;;;;;14.12;46.78;100174.06;4981886;27;99118;-63
2022/01/30 04:59:41;;;;;;;;;;;;;;;14.10;46.38;100141.81;4961993;28;98261;-64
2022/01/30 05:02:13;;;;;;;;;;;;;;;14.09;46.57;100161.91;4963026;28;98695;-56
2022/01/30 05:09:32;;;;;;;;;;;;;;;14.10;46.43;100151.88;4983619;27;98399;-56
2022/01/30 05:11:58;;;;;;;;;;;;;;;14.10;46.43;100155.38;4983031;27;97861;-56
2022/01/30 05:14:27;;;;;;;;;;;;;;;14.11;46.21;100158.88;4982825;28;118124;-64
2022/01/30 05:16:54;;;;;;;;;;;;;;;14.11;46.26;100172.44;4983843;27;98868;-64
2022/01/30 05:19:20;;;;;;;;;;;;;;;14.11;46.43;100158.88;4982523;27;118440;-63
2022/01/30 05:21:46;;;;;;;;;;;;;;;14.11;46.42;100208.50;4982401;27;117474;-56
2022/01/30 05:24:12;;;;;;;;;;;;;;;14.13;46.55;100208.19;4982979;28;109832;-57
2022/01/30 05:26:41;;;;;;;;;;;;;;;14.12;46.29;100203.88;4982691;27;118453;-64
2022/01/30 05:29:07;;;;;;;;;;;;;;;14.13;46.42;100189.22;4982813;27;98628;-56
2022/01/30 05:31:33;;;;;;;;;;;;;;;14.12;46.27;100204.69;4982123;27;119263;-56
2022/01/30 05:34:00;;;;;;;;;;;;;;;14.13;46.29;100216.31;5014975;27;104708;-56
2022/01/30 05:36:26;;;;;;;;;;;;;;;14.11;46.22;100208.50;4982051;27;120385;-63
2022/01/30 05:38:52;;;;;;;;;;;;;;;14.12;46.33;100220.94;4980293;28;127965;-56
2022/01/30 05:41:18;;;;;;;;;;;;;;;14.12;45.99;100231.78;4980535;28;98578;-56
2022/01/30 05:43:49;;;;;;;;;;;;;;;14.10;46.27;100247.53;4983754;27;98170;-64
2022/01/30 05:46:18;;;;;;;;;;;;;;;14.12;46.06;100241.81;4983012;27;98627;-57
2022/01/30 05:48:44;;;;;;;;;;;;;;;14.11;45.91;100227.47;4982456;28;99374;-56
2022/01/30 05:51:10;;;;;;;;;;;;;;;14.12;45.88;100220.94;4982490;27;120525;-63
2022/01/30 05:53:36;;;;;;;;;;;;;;;14.11;45.91;100205.78;4982472;28;109150;-56
2022/01/30 05:56:02;;;;;;;;;;;;;;;14.12;45.94;100223.66;4982294;27;98790;-63
2022/01/30 05:58:28;;;;;;;;;;;;;;;14.12;45.97;100198.47;4963497;28;98410;-56
2022/01/30 06:00:54;;;;;;;;;;;;;;;14.11;46.06;100219.34;4982387;28;111549;-56
2022/01/30 06:03:21;;;;;;;;;;;;;;;14.12;45.94;100198.47;4983008;27;97843;-64
2022/01/30 06:05:48;;;;;;;;;;;;;;;14.11;46.14;100213.09;4981495;27;98834;-64
2022/01/30 06:08:27;;;;;;;;;;;;;;;14.11;45.79;100216.63;4981522;27;98965;-56
2022/01/30 06:10:53;;;;;;;;;;;;;;;14.13;46.03;100235.31;4983020;28;98051;-63
2022/01/30 06:13:19;;;;;;;;;;;;;;;14.12;46.13;100233.69;4982686;27;117655;-63
2022/01/30 06:15:45;;;;;;;;;;;;;;;14.10;45.80;100228.56;4982125;27;128009;-57
2022/01/30 06:18:11;;;;;;;;;;;;;;;14.10;45.65;100215.00;4981344;28;129144;-63
2022/01/30 06:20:36;;;;;;;;;;;;;;;14.09;45.96;100202.56;4981401;27;125594;-56
2022/01/30 06:23:02;;;;;;;;;;;;;;;14.10;45.61;100220.44;4982876;27;104922;-63
2022/01/30 06:25:28;;;;;;;;;;;;;;;14.10;45.62;100212.28;4962513;28;126429;-56
2022/01/30 06:27:54;;;;;;;;;;;;;;;14.10;45.60;100198.75;4981704;28;127486;-56
2022/01/30 06:30:21;;;;;;;;;;;;;;;14.11;45.74;100202.25;4980908;28;128589;-56
2022/01/30 06:32:49;;;;;;;;;;;;;;;14.10;45.91;100201.44;4982785;27;98029;-56
2022/01/30 06:35:15;;;;;;;;;;;;;;;14.10;45.81;100212.28;4982370;27;98253;-57
2022/01/30 06:37:41;;;;;;;;;;;;;;;14.11;45.94;100208.50;4981647;27;117997;-56
2022/01/30 06:40:07;;;;;;;;;;;;;;;14.11;45.81;100205.78;4980686;27;126253;-56
2022/01/30 06:42:33;;;;;;;;;;;;;;;14.10;45.57;100206.88;4981958;28;102816;-64
2022/01/30 06:44:59;;;;;;;;;;;;;;;14.10;45.45;100215.00;4979912;28;128049;-56
2022/01/30 06:47:25;;;;;;;;;;;;;;;14.10;45.38;100231.25;4982363;28;116181;-63
2022/01/30 06:49:51;;;;;;;;;;;;;;;14.11;45.46;100226.66;4981796;28;98888;-57
2022/01/30 06:52:17;;;;;;;;;;;;;;;14.10;45.70;100242.09;4982312;28;97878;-64
2022/01/30 06:54:43;;;;;;;;;;;;;;;14.10;45.70;100254.84;4981340;28;125444;-56
2022/01/30 06:57:09;;;;;;;;;;;;;;;14.11;45.77;100251.88;4980852;28;128406;-64
2022/01/30 06:59:35;;;;;;;;;;;;;;;14.10;45.55;100258.38;4980960;28;115861;-63
2022/01/30 07:02:01;;;;;;;;;;;;;;;14.11;45.46;100273.56;4981961;27;98136;-63
2022/01/30 07:04:27;;;;;;;;;;;;;;;14.11;45.35;100278.13;4980429;28;98470;-56
2022/01/30 07:06:53;;;;;;;;;;;;;;;14.11;45.72;100261.88;4978564;28;126547;-56
2022/01/30 07:09:19;;;;;;;;;;;;;;;14.11;45.68;100264.59;4978727;28;107394;-63
2022/01/30 07:11:45;;;;;;;;;;;;;;;14.10;45.37;100293.59;4982511;27;97943;-63
2022/01/30 07:14:11;;;;;;;;;;;;;;;14.10;45.57;100274.63;4980040;28;98517;-63
2022/01/30 07:16:37;;;;;;;;;;;;;;;14.10;45.39;100288.19;4977390;27;126693;-63
2022/01/30 07:19:03;;;;;;;;;;;;;;;14.10;45.59;100320.72;4976397;28;126440;-56
2022/01/30 07:21:28;;;;;;;;;;;;;;;14.10;45.38;100325.31;4975837;28;119490;-56
2022/01/30 07:23:54;;;;;;;;;;;;;;;14.11;45.24;100310.66;4976090;28;106866;-56
2022/01/30 07:26:20;;;;;;;;;;;;;;;14.10;45.44;100311.78;4975504;27;126098;-56
2022/01/30 07:28:46;;;;;;;;;;;;;;;14.10;44.88;100306.34;4974410;28;128308;-56
2022/01/30 07:31:12;;;;;;;;;;;;;;;14.11;45.01;100311.50;4976294;27;114738;-56
2022/01/30 07:33:40;;;;;;;;;;;;;;;14.11;45.14;100307.94;4976004;28;103419;-57
2022/01/30 07:36:06;;;;;;;;;;;;;;;14.11;45.39;100297.94;4976859;27;99511;-57
2022/01/30 07:38:32;;;;;;;;;;;;;;;14.13;44.96;100301.16;4958085;28;100230;-56
2022/01/30 07:40:58;;;;;;;;;;;;;;;14.14;45.03;100313.59;4974817;27;98303;-56
2022/01/30 07:43:24;;;;;;;;;;;;;;;14.16;45.11;100314.13;4976200;28;128070;-56
2022/01/30 07:45:50;;;;;;;;;;;;;;;14.19;45.05;100308.13;4974540;27;97996;-56
2022/01/30 07:48:16;;;;;;;;;;;;;;;14.24;44.97;100288.25;4975815;28;128317;-57
2022/01/30 07:50:42;;;;;;;;;;;;;;;14.27;44.83;100273.31;4975431;27;117821;-57
2022/01/30 07:53:08;;;;;;;;;;;;;;;14.41;45.02;100260.56;4976503;27;98209;-56
2022/01/30 07:55:34;;;;;;;;;;;;;;;14.54;44.87;100240.88;4975927;27;98677;-56
2022/01/30 07:58:00;;;;;;;;;;;;;;;14.60;44.42;100234.22;4975517;28;128764;-57
2022/01/30 08:00:26;;;;;;;;;;;;;;;14.68;44.71;100238.16;4975595;27;117637;-56
2022/01/30 08:02:52;;;;;;;;;;;;;;;14.79;44.63;100230.63;4976843;28;127902;-63
2022/01/30 08:05:18;;;;;;;;;;;;;;;14.94;44.14;100143.50;4976206;28;126558;-63
2022/01/30 08:07:43;;;;;;;;;;;;;;;15.17;43.71;100194.03;4977283;28;128237;-62
2022/01/30 08:10:09;;;;;;;;;;;;;;;15.48;43.44;100201.47;4977301;27;108631;-62
2022/01/30 08:12:37;;;;;;;;;;;;;;;15.45;43.57;100196.69;4976803;28;128477;-63
2022/01/30 08:15:04;;;;;;;;;;;;;;;15.82;43.30;100224.66;4968000;28;98803;-65
2022/01/30 08:17:32;;;;;;;;;;;;;;;16.06;43.12;100208.84;4977024;28;115372;-63
2022/01/30 08:19:58;;;;;;;;;;;;;;;16.25;42.54;100216.00;4977910;28;98259;-58
2022/01/30 08:22:28;;;;;;;;;;;;;;;16.43;42.72;100228.59;4976454;28;99074;-56
2022/01/30 08:24:54;;;;;;;;;;;;;;;16.56;42.76;100246.75;4976275;28;99302;-63
2022/01/30 08:27:20;;;;;;;;;;;;;;;16.45;43.00;100248.91;4977172;28;115680;-56
2022/01/30 08:29:46;;;;;;;;;;;;;;;16.41;43.26;100256.09;4976411;28;117623;-63
2022/01/30 08:32:12;;;;;;;;;;;;;;;16.43;43.33;100269.41;4969489;28;98553;-57
2022/01/30 08:34:39;;;;;;;;;;;;;;;16.41;43.38;100290.66;4975201;28;128488;-63
2022/01/30 08:37:05;;;;;;;;;;;;;;;16.39;43.34;100299.13;4973715;27;98117;-56
2022/01/30 08:39:31;;;;;;;;;;;;;;;16.24;43.48;100310.38;4976689;28;98155;-56
2022/01/30 08:41:58;;;;;;;;;;;;;;;16.12;43.80;100342.75;4976487;27;119813;-64
2022/01/30 08:44:24;;;;;;;;;;;;;;;15.99;43.99;100338.94;4976593;28;98259;-64
2022/01/30 08:46:49;;;;;;;;;;;;;;;15.90;44.26;100347.03;4975901;28;127078;-57
2022/01/30 08:49:16;;;;;;;;;;;;;;;15.85;44.18;100370.81;4977286;28;109004;-64
2022/01/30 08:51:41;;;;;;;;;;;;;;;15.79;44.28;100358.44;4976039;27;119965;-56
2022/01/30 08:54:07;;;;;;;;;;;;;;;15.73;44.47;100359.66;4976113;28;127550;-64
2022/01/30 08:56:33;;;;;;;;;;;;;;;15.69;44.81;100373.03;4975852;28;128080;-57
2022/01/30 08:58:59;;;;;;;;;;;;;;;15.62;44.78;100367.19;4975106;28;104836;-56
2022/01/30 09:01:30;;;;;;;;;;;;;;;15.56;44.59;100398.25;4976055;28;118412;-57
2022/01/30 09:03:56;;;;;;;;;;;;;;;15.51;44.66;100393.75;4974558;28;100046;-56
2022/01/30 09:06:22;;;;;;;;;;;;;;;15.46;44.88;100400.06;4975704;28;126873;-56
2022/01/30 09:08:48;;;;;;;;;;;;;;;15.42;44.90;100395.56;4976792;28;97888;-57
2022/01/30 09:11:14;;;;;;;;;;;;;;;15.37;44.93;100429.06;4976418;27;126820;-56
2022/01/30 09:13:40;;;;;;;;;;;;;;;15.35;45.15;100433.97;4976610;28;128481;-58
2022/01/30 09:16:06;;;;;;;;;;;;;;;15.32;44.97;100439.19;4975821;28;127704;-64
2022/01/30 09:18:32;;;;;;;;;;;;;;;15.29;44.88;100437.91;4976270;28;97936;-64
2022/01/30 09:20:58;;;;;;;;;;;;;;;15.25;45.05;100466.75;4976086;27;118954;-64
2022/01/30 09:23:24;;;;;;;;;;;;;;;15.22;45.32;100456.47;4980005;28;111374;-64
2022/01/30 09:25:50;;;;;;;;;;;;;;;15.21;45.12;100457.59;4979301;27;97962;-56
2022/01/30 09:28:16;;;;;;;;;;;;;;;15.19;45.29;100463.31;4979098;28;110638;-63
2022/01/30 09:30:42;;;;;;;;;;;;;;;15.20;45.05;100470.34;4979250;27;128641;-56
2022/01/30 09:33:08;;;;;;;;;;;;;;;15.20;44.73;100453.25;4978373;28;128258;-57
2022/01/30 09:35:33;;;;;;;;;;;;;;;15.20;45.05;100473.06;4979101;27;128513;-64
2022/01/30 09:37:59;;;;;;;;;;;;;;;15.18;45.04;100471.75;4978907;28;118205;-62
2022/01/30 09:40:27;;;;;;;;;;;;;;;15.17;45.17;100483.72;4979219;27;119358;-56
2022/01/30 09:42:53;;;;;;;;;;;;;;;15.19;45.13;100479.59;4977721;28;98425;-64
2022/01/30 09:45:22;;;;;;;;;;;;;;;15.19;44.86;100497.78;4960714;28;98512;-63
2022/01/30 09:47:48;;;;;;;;;;;;;;;15.18;44.77;100496.19;4979417;28;97997;-57
2022/01/30 09:50:16;;;;;;;;;;;;;;;15.18;45.32;100523.34;4979840;27;111229;-56
2022/01/30 09:52:42;;;;;;;;;;;;;;;15.19;45.17;100508.66;4961018;28;98685;-63
2022/01/30 09:55:08;;;;;;;;;;;;;;;15.19;45.24;100503.22;4978323;27;122844;-63
2022/01/30 09:57:35;;;;;;;;;;;;;;;15.19;44.86;100517.59;4980277;27;98122;-57
2022/01/30 10:00:02;;;;;;;;;;;;;;;15.19;44.96;100508.66;4978908;27;98341;-64
2022/01/30 10:02:28;;;;;;;;;;;;;;;15.20;44.79;100508.34;4979798;27;99129;-64
2022/01/30 10:04:54;;;;;;;;;;;;;;;15.21;45.10;100514.59;4977938;27;127333;-56
2022/01/30 10:07:25;;;;;;;;;;;;;;;15.20;45.12;100510.25;4979066;28;107585;-64
2022/01/30 10:09:51;;;;;;;;;;;;;;;15.22;44.91;100499.91;4978630;27;98539;-57
2022/01/30 10:12:20;;;;;;;;;;;;;;;15.22;45.14;100525.16;4978625;28;129014;-57
2022/01/30 10:14:53;;;;;;;;;;;;;;;15.26;44.70;100517.22;4978915;27;98488;-56
2022/01/30 10:17:33;;;;;;;;;;;;;;;15.26;44.76;100521.84;4979116;27;97785;-64
2022/01/30 10:20:07;;;;;;;;;;;;;;;15.26;45.06;100506.38;4976520;27;109593;-60
2022/01/30 10:22:34;;;;;;;;;;;;;;;15.26;45.21;100521.84;4978034;28;98297;-63
2022/01/30 10:24:59;;;;;;;;;;;;;;;15.27;45.19;100518.03;4978100;27;121230;-63
2022/01/30 10:27:27;;;;;;;;;;;;;;;15.31;45.10;100505.47;4979670;28;97903;-56
2022/01/30 10:30:00;;;;;;;;;;;;;;;15.41;45.16;100510.75;4979156;27;98802;-57
2022/01/30 10:32:26;;;;;;;;;;;;;;;15.43;44.97;100528.31;4977591;27;98128;-64
2022/01/30 10:35:04;;;;;;;;;;;;;;;15.47;45.29;100528.53;4977030;27;98310;-64
2022/01/30 10:37:30;;;;;;;;;;;;;;;15.49;45.29;100520.91;4980214;27;98045;-64
2022/01/30 10:40:19;;;;;;;;;;;;;;;15.49;45.09;100544.56;4978695;27;98399;-56
2022/01/30 10:42:48;;;;;;;;;;;;;;;15.49;45.14;100548.06;4977835;27;98534;-56
2022/01/30 10:45:25;;;;;;;;;;;;;;;15.52;45.26;100538.50;4976978;27;117108;-56
2022/01/30 10:47:51;;;;;;;;;;;;;;;15.51;45.06;100543.13;4979071;27;97773;-56
2022/01/30 10:50:21;;;;;;;;;;;;;;;15.54;45.42;100544.47;4974010;27;128299;-56
2022/01/30 10:52:55;;;;;;;;;;;;;;;15.52;45.50;100549.38;4977218;28;115454;-56
2022/01/30 10:55:38;;;;;;;;;;;;;;;15.54;45.30;100552.63;4977990;28;98598;-56
2022/01/30 10:58:05;;;;;;;;;;;;;;;15.57;45.16;100552.81;4978910;27;97955;-56
2022/01/30 11:00:38;;;;;;;;;;;;;;;15.53;45.69;100562.69;4977720;27;98740;-56
2022/01/30 11:03:04;;;;;;;;;;;;;;;15.50;45.71;100565.97;4977983;27;98217;-56
2022/01/30 11:05:32;;;;;;;;;;;;;;;15.50;45.87;100568.69;4976320;27;98151;-56
2022/01/30 11:07:58;;;;;;;;;;;;;;;15.53;45.42;100565.41;4978196;28;97931;-57
2022/01/30 11:10:26;;;;;;;;;;;;;;;15.50;45.63;100571.41;4974654;27;128854;-56
2022/01/30 11:13:08;;;;;;;;;;;;;;;15.49;45.80;100572.53;4978076;27;99006;-57
2022/01/30 11:15:43;;;;;;;;;;;;;;;15.45;45.86;100580.47;4975569;28;99403;-56
2022/01/30 11:18:10;;;;;;;;;;;;;;;15.44;45.63;100580.75;4959487;28;97978;-56
2022/01/30 11:20:36;;;;;;;;;;;;;;;15.43;45.59;100588.09;4974548;28;120796;-56
2022/01/30 11:23:03;;;;;;;;;;;;;;;15.43;45.73;100579.94;4976761;28;128133;-57
2022/01/30 11:25:36;;;;;;;;;;;;;;;15.42;45.59;100591.91;4977082;27;98110;-56
2022/01/30 11:28:04;;;;;;;;;;;;;;;15.42;45.78;100589.19;4977916;27;98229;-56
2022/01/30 11:30:32;;;;;;;;;;;;;;;15.41;45.62;100593.03;4977171;27;99105;-56
2022/01/30 11:32:58;;;;;;;;;;;;;;;15.41;45.78;100584.88;4976218;27;101872;-56
2022/01/30 11:35:24;;;;;;;;;;;;;;;15.40;45.85;100606.88;4978185;27;98139;-56
2022/01/30 11:37:50;;;;;;;;;;;;;;;15.39;45.95;100600.66;4978229;28;98010;-57
2022/01/30 11:40:17;;;;;;;;;;;;;;;15.39;46.07;100616.94;4973794;27;129286;-56
2022/01/30 11:42:45;;;;;;;;;;;;;;;15.37;45.83;100631.94;4977894;27;98353;-57
2022/01/30 11:45:27;;;;;;;;;;;;;;;15.51;45.80;100629.25;4977387;27;97799;-56
2022/01/30 11:47:58;;;;;;;;;;;;;;;15.57;45.50;100634.31;4978171;27;97892;-56
2022/01/30 11:50:25;;;;;;;;;;;;;;;15.63;45.49;100629.59;4975472;27;99006;-56
2022/01/30 11:52:52;;;;;;;;;;;;;;;15.66;45.56;100640.72;4977264;27;98978;-56
2022/01/30 11:55:40;;;;;;;;;;;;;;;15.73;45.59;100628.69;4976922;27;98362;-64
2022/01/30 11:58:06;;;;;;;;;;;;;;;15.73;45.57;100621.31;4978669;27;97950;-63
2022/01/30 12:00:41;;;;;;;;;;;;;;;15.73;45.80;100617.81;4974909;27;99042;-56
2022/01/30 12:03:25;;;;;;;;;;;;;;;15.75;45.79;100621.00;4977272;27;118547;-63
2022/01/30 12:05:52;;;;;;;;;;;;;;;15.76;45.80;100626.16;4977637;28;98633;-64
2022/01/30 12:08:52;;;;;;;;;;;;;;;15.73;46.04;100629.47;4976986;28;98081;-63
2022/01/30 12:11:37;;;;;;;;;;;;;;;15.69;45.94;100636.63;4976621;27;99247;-56
2022/01/30 12:14:21;;;;;;;;;;;;;;;15.73;46.20;100632.19;4975666;28;98298;-63
2022/01/30 12:16:57;;;;;;;;;;;;;;;15.73;46.15;100620.53;4977190;28;97882;-63
2022/01/30 12:19:41;;;;;;;;;;;;;;;15.72;46.05;100638.75;4978188;27;98528;-56
2022/01/30 12:22:17;;;;;;;;;;;;;;;15.75;46.09;100637.31;4976900;27;97930;-63
2022/01/30 12:24:43;;;;;;;;;;;;;;;15.76;45.84;100633.50;4976345;28;98024;-56
2022/01/30 12:27:09;;;;;;;;;;;;;;;15.76;45.77;100647.06;4977240;27;120901;-63
2022/01/30 12:29:35;;;;;;;;;;;;;;;15.76;45.81;100637.03;4974975;28;116615;-57
2022/01/30 12:32:20;;;;;;;;;;;;;;;15.75;46.12;100642.75;4977074;28;98557;-64
2022/01/30 12:34:55;;;;;;;;;;;;;;;15.74;45.64;100631.09;4972899;28;98972;-64
2022/01/30 12:37:34;;;;;;;;;;;;;;;15.74;45.93;100650.09;4977472;28;97812;-64
2022/01/30 12:40:22;;;;;;;;;;;;;;;15.77;46.02;100651.44;4969993;27;98150;-63
2022/01/30 12:42:48;;;;;;;;;;;;;;;15.77;45.81;100644.09;4977143;27;98236;-56
2022/01/30 12:45:14;;;;;;;;;;;;;;;15.79;45.84;100651.94;4976864;27;99146;-63
2022/01/30 12:47:50;;;;;;;;;;;;;;;15.80;45.84;100658.97;4976111;28;113232;-63
2022/01/30 12:50:16;;;;;;;;;;;;;;;15.79;45.74;100671.75;4976966;27;98094;-64
2022/01/30 12:52:47;;;;;;;;;;;;;;;15.81;45.97;100674.19;4976847;27;98786;-56
2022/01/30 12:55:16;;;;;;;;;;;;;;;15.80;45.96;100670.66;4976123;28;98790;-56
2022/01/30 12:57:42;;;;;;;;;;;;;;;15.84;46.15;100668.97;4978723;28;98794;-56
2022/01/30 13:00:09;;;;;;;;;;;;;;;15.83;45.65;100675.50;4976928;27;110157;-56
2022/01/30 13:02:37;;;;;;;;;;;;;;;15.84;45.80;100677.13;4980202;27;120317;-56
2022/01/30 13:05:08;;;;;;;;;;;;;;;15.84;45.98;100679.03;4978371;27;98756;-64
2022/01/30 13:07:34;;;;;;;;;;;;;;;15.87;45.84;100681.13;4980575;27;98176;-56
2022/01/30 13:10:13;;;;;;;;;;;;;;;15.85;45.95;100691.53;4980577;27;97885;-63
2022/01/30 13:12:41;;;;;;;;;;;;;;;15.80;46.04;100695.13;4980324;28;99597;-64
2022/01/30 13:15:11;;;;;;;;;;;;;;;15.77;45.93;100709.31;4979989;27;99197;-56
2022/01/30 13:17:37;;;;;;;;;;;;;;;15.77;46.17;100701.16;4972859;28;98586;-57
2022/01/30 13:20:04;;;;;;;;;;;;;;;15.75;45.82;100710.69;4978212;28;118213;-58
2022/01/30 13:22:36;;;;;;;;;;;;;;;15.71;45.85;100721.34;4979805;27;98510;-57
2022/01/30 13:25:04;;;;;;;;;;;;;;;15.68;45.80;100728.19;4979059;27;98990;-56
2022/01/30 13:27:30;;;;;;;;;;;;;;;15.66;45.89;100727.66;4980677;27;98554;-56
2022/01/30 13:29:56;;;;;;;;;;;;;;;15.68;45.92;100730.91;4979637;27;97776;-56
2022/01/30 13:32:24;;;;;;;;;;;;;;;15.69;45.75;100729.00;4978760;28;114516;-56